createdAt,value
2023-02-16T00:02:05.391Z,99726.48
2023-02-16T00:06:23.603Z,99725.17
2023-02-16T00:10:31.795Z,99722.20
2023-02-16T00:14:39.944Z,99720.70
2023-02-16T00:18:48.209Z,99717.25
2023-02-16T00:22:56.361Z,99707.36
2023-02-16T00:27:04.525Z,99705.41
2023-02-16T00:31:15.941Z,99702.19
2023-02-16T00:35:25.239Z,99696.80
2023-02-16T00:39:32.236Z,99692.99
2023-02-16T00:43:39.564Z,99690.80
2023-02-16T00:47:38.677Z,99685.30
2023-02-16T00:51:46.838Z,99680.20
2023-02-16T00:56:01.190Z,99670.81
2023-02-16T01:00:10.402Z,99666.56
2023-02-16T01:04:10.986Z,99661.91
2023-02-16T01:08:25.288Z,99666.77
2023-02-16T01:12:33.605Z,99662.04
2023-02-16T01:16:41.949Z,99664.55
2023-02-16T01:20:50.140Z,99653.67
2023-02-16T01:24:58.313Z,99645.86
2023-02-16T01:29:21.973Z,99641.98
2023-02-16T01:33:30.101Z,99636.02
2023-02-16T01:37:29.264Z,99630.46
2023-02-16T01:41:43.143Z,99623.91
2023-02-16T01:45:51.329Z,99618.04
2023-02-16T01:50:02.119Z,99606.56
2023-02-16T01:54:17.392Z,99604.17
2023-02-16T01:58:05.220Z,99605.61
2023-02-16T02:02:13.387Z,99597.02
2023-02-16T02:06:28.777Z,99596.95
2023-02-16T02:10:43.008Z,99591.94
2023-02-16T02:14:54.637Z,99592.52
2023-02-16T02:19:03.080Z,99589.44
2023-02-16T02:23:18.914Z,99577.83
2023-02-16T02:27:45.260Z,99580.48
2023-02-16T02:31:59.550Z,99573.98
2023-02-16T02:36:18.590Z,99570.89
2023-02-16T02:40:47.885Z,99565.81
2023-02-16T02:44:49.876Z,99556.48
2023-02-16T02:48:37.708Z,99557.11
2023-02-16T02:52:45.795Z,99560.00
2023-02-16T02:56:58.276Z,99554.41
2023-02-16T03:01:21.530Z,99550.63
2023-02-16T03:05:18.412Z,99542.21
2023-02-16T03:09:26.560Z,99539.90
2023-02-16T03:13:29.547Z,99537.33
2023-02-16T03:17:52.471Z,99535.34
2023-02-16T03:22:00.261Z,99536.58
2023-02-16T03:26:06.888Z,99531.05
2023-02-16T03:30:05.240Z,99525.99
2023-02-16T03:34:13.384Z,99524.16
2023-02-16T03:38:21.686Z,99521.15
2023-02-16T03:42:29.873Z,99510.02
2023-02-16T03:46:38.039Z,99500.04
2023-02-16T03:50:47.135Z,99504.23
2023-02-16T03:54:46.782Z,99505.00
2023-02-16T03:58:54.934Z,99505.50
2023-02-16T04:03:03.226Z,99496.12
2023-02-16T04:07:11.397Z,99486.98
2023-02-16T04:11:19.546Z,99478.63
2023-02-16T04:15:28.765Z,99478.91
2023-02-16T04:19:36.974Z,99480.45
2023-02-16T04:23:47.132Z,99476.89
2023-02-16T04:27:55.374Z,99467.89
2023-02-16T04:32:03.688Z,99470.08
2023-02-16T04:36:12.930Z,99467.73
2023-02-16T04:40:21.087Z,99458.23
2023-02-16T04:44:29.286Z,99458.18
2023-02-16T04:48:37.508Z,99455.59
2023-02-16T04:52:44.575Z,99451.88
2023-02-16T04:56:22.621Z,99453.75
2023-02-16T04:59:53.327Z,99450.13
2023-02-16T05:03:51.556Z,99449.36
2023-02-16T05:07:59.756Z,99456.48
2023-02-16T05:11:59.233Z,99459.35
2023-02-16T05:15:47.398Z,99465.67
2023-02-16T05:19:25.332Z,99464.35
2023-02-16T05:22:53.166Z,99469.57
2023-02-16T05:26:20.144Z,99469.77
2023-02-16T05:30:21.044Z,99464.41
2023-02-16T05:34:30.148Z,99466.73
2023-02-16T05:38:39.323Z,99467.03
2023-02-16T05:42:39.581Z,99462.23
2023-02-16T05:46:46.551Z,99464.62
2023-02-16T05:50:44.607Z,99467.45
2023-02-16T05:54:52.866Z,99468.45
2023-02-16T05:58:25.574Z,99473.52
2023-02-16T06:02:33.833Z,99476.12
2023-02-16T06:06:04.853Z,99474.81
2023-02-16T06:09:32.922Z,99469.88
2023-02-16T06:13:10.672Z,99468.60
2023-02-16T06:17:08.627Z,99471.23
2023-02-16T06:20:49.267Z,99461.87
2023-02-16T06:24:17.400Z,99458.20
2023-02-16T06:27:46.930Z,99454.77
2023-02-16T06:30:27.360Z,99451.77
2023-02-16T06:34:09.556Z,99450.17
2023-02-16T06:37:22.381Z,99448.22
2023-02-16T06:40:11.616Z,99445.48
2023-02-16T06:43:09.915Z,99441.05
2023-02-16T06:46:18.694Z,99442.02
2023-02-16T06:49:28.551Z,99437.27
2023-02-16T06:52:41.288Z,99429.45
2023-02-16T06:55:44.697Z,99430.59
2023-02-16T06:58:17.669Z,99433.52
2023-02-16T07:01:31.166Z,99431.02
2023-02-16T07:04:45.231Z,99437.82
2023-02-16T07:07:13.271Z,99431.80
2023-02-16T07:09:46.808Z,99432.80
2023-02-16T07:12:40.260Z,99431.51
2023-02-16T07:16:16.852Z,99428.95
2023-02-16T07:19:13.565Z,99422.70
2023-02-16T07:21:55.556Z,99419.88
2023-02-16T07:24:50.083Z,99421.81
2023-02-16T07:27:19.968Z,99417.32
2023-02-16T07:29:59.219Z,99415.60
2023-02-16T07:33:10.979Z,99413.04
2023-02-16T07:36:20.336Z,99407.48
2023-02-16T07:38:55.500Z,99412.42
2023-02-16T07:42:06.479Z,99404.44
2023-02-16T07:45:15.947Z,99405.98
2023-02-16T07:48:14.444Z,99400.81
2023-02-16T07:51:25.277Z,99393.61
2023-02-16T07:54:08.665Z,99389.34
2023-02-16T07:57:09.042Z,99390.79
2023-02-16T08:00:07.872Z,99390.05
2023-02-16T08:02:51.981Z,99389.66
2023-02-16T08:05:59.465Z,99391.32
2023-02-16T08:09:24.408Z,99386.80
2023-02-16T08:12:55.202Z,99384.21
2023-02-16T08:15:34.588Z,99379.96
2023-02-16T08:18:55.487Z,99380.66
2023-02-16T08:22:06.578Z,99375.40
2023-02-16T08:25:16.733Z,99371.61
2023-02-16T08:28:39.957Z,99367.28
2023-02-16T08:31:38.900Z,99365.73
2023-02-16T08:35:07.873Z,99364.29
2023-02-16T08:39:05.846Z,99358.37
2023-02-16T08:41:57.272Z,99358.61
2023-02-16T08:45:25.587Z,99362.77
2023-02-16T08:48:16.877Z,99354.60
2023-02-16T08:50:54.043Z,99348.41
2023-02-16T08:53:57.760Z,99344.92
2023-02-16T08:57:07.710Z,99345.71
2023-02-16T09:00:25.976Z,99341.19
2023-02-16T09:03:15.454Z,99337.75
2023-02-16T09:05:55.257Z,99340.21
2023-02-16T09:08:43.304Z,99340.59
2023-02-16T09:11:14.026Z,99340.66
2023-02-16T09:14:06.456Z,99339.15
2023-02-16T09:16:38.982Z,99341.98
2023-02-16T09:19:36.602Z,99338.18
2023-02-16T09:22:06.870Z,99337.77
2023-02-16T09:24:37.591Z,99336.24
2023-02-16T09:27:35.130Z,99331.33
2023-02-16T09:30:02.580Z,99329.20
2023-02-16T09:33:32.700Z,99318.07
2023-02-16T09:36:28.982Z,99318.55
2023-02-16T09:39:36.178Z,99317.64
2023-02-16T09:42:06.436Z,99308.33
2023-02-16T09:44:33.844Z,99299.73
2023-02-16T09:47:26.888Z,99295.88
2023-02-16T09:49:58.594Z,99293.58
2023-02-16T09:52:44.520Z,99295.70
2023-02-16T09:55:41.067Z,99289.40
2023-02-16T09:58:33.917Z,99280.41
2023-02-16T10:01:39.110Z,99276.80
2023-02-16T10:04:43.865Z,99266.40
2023-02-16T10:08:14.612Z,99263.68
2023-02-16T10:11:31.836Z,99260.66
2023-02-16T10:14:16.208Z,99252.95
2023-02-16T10:16:57.136Z,99247.77
2023-02-16T10:19:29.661Z,99251.22
2023-02-16T10:22:00.693Z,99246.33
2023-02-16T10:24:31.620Z,99238.20
2023-02-16T10:27:08.472Z,99236.36
2023-02-16T10:29:45.784Z,99231.05
2023-02-16T10:32:26.958Z,99223.37
2023-02-16T10:35:19.468Z,99217.88
2023-02-16T10:38:27.719Z,99215.30
2023-02-16T10:41:14.097Z,99214.91
2023-02-16T10:44:24.386Z,99213.25
2023-02-16T10:47:36.746Z,99207.80
2023-02-16T10:50:07.241Z,99209.02
2023-02-16T10:53:06.657Z,99201.73
2023-02-16T10:57:56.617Z,99199.13
2023-02-16T11:00:28.567Z,99193.58
2023-02-16T11:03:06.339Z,99191.47
2023-02-16T11:05:38.702Z,99187.28
2023-02-16T11:08:11.420Z,99182.05
2023-02-16T11:10:50.781Z,99181.02
2023-02-16T11:13:40.543Z,99183.35
2023-02-16T11:16:13.898Z,99177.90
2023-02-16T11:18:46.992Z,99171.20
2023-02-16T11:21:50.453Z,99166.90
2023-02-16T11:24:50.700Z,99164.89
2023-02-16T11:27:25.988Z,99159.66
2023-02-16T11:30:36.812Z,99155.27
2023-02-16T11:33:28.629Z,99156.02
2023-02-16T11:35:56.304Z,99150.61
2023-02-16T11:38:37.105Z,99144.98
2023-02-16T11:41:07.391Z,99140.59
2023-02-16T11:43:44.720Z,99141.75
2023-02-16T11:46:16.884Z,99146.08
2023-02-16T11:48:44.422Z,99145.71
2023-02-16T11:51:12.604Z,99145.74
2023-02-16T11:53:58.935Z,99138.92
2023-02-16T11:56:46.757Z,99135.63
2023-02-16T11:59:21.878Z,99127.78
2023-02-16T12:01:54.653Z,99125.39
2023-02-16T12:04:40.031Z,99123.60
2023-02-16T12:07:32.545Z,99122.98
2023-02-16T12:10:53.544Z,99118.52
2023-02-16T12:13:38.094Z,99116.12
2023-02-16T12:16:37.198Z,99111.42
2023-02-16T12:19:27.247Z,99102.08
2023-02-16T12:22:04.736Z,99098.84
2023-02-16T12:25:00.881Z,99093.64
2023-02-16T12:27:41.886Z,99088.30
2023-02-16T12:30:18.405Z,99088.95
2023-02-16T12:33:06.032Z,99081.04
2023-02-16T12:35:46.251Z,99082.52
2023-02-16T12:38:34.474Z,99076.13
2023-02-16T12:41:14.086Z,99075.31
2023-02-16T12:43:53.998Z,99072.60
2023-02-16T12:46:47.285Z,99070.35
2023-02-16T12:49:24.631Z,99063.83
2023-02-16T12:52:57.874Z,99064.36
2023-02-16T12:55:31.730Z,99059.34
2023-02-16T12:58:53.531Z,99052.98
2023-02-16T13:01:25.567Z,99046.77
2023-02-16T13:04:17.709Z,99040.57
2023-02-16T13:07:03.189Z,99041.77
2023-02-16T13:10:21.726Z,99039.20
2023-02-16T13:13:12.501Z,99037.75
2023-02-16T13:15:55.024Z,99029.84
2023-02-16T13:18:24.482Z,99026.10
2023-02-16T13:21:19.463Z,99020.79
2023-02-16T13:24:26.790Z,99014.95
2023-02-16T13:27:12.762Z,99010.16
2023-02-16T13:30:35.073Z,99009.14
2023-02-16T13:34:06.546Z,99009.41
2023-02-16T13:37:17.041Z,99005.49
2023-02-16T13:40:15.329Z,99002.48
2023-02-16T13:43:09.998Z,99005.16
2023-02-16T13:45:54.179Z,99000.23
2023-02-16T13:48:41.538Z,98998.42
2023-02-16T13:51:13.967Z,98994.80
2023-02-16T13:53:42.509Z,98991.95
2023-02-16T13:56:31.031Z,98991.62
2023-02-16T13:59:01.282Z,98989.31
2023-02-16T14:01:28.530Z,98989.20
2023-02-16T14:03:58.490Z,98987.54
2023-02-16T14:06:34.272Z,98980.58
2023-02-16T14:09:15.534Z,98977.03
2023-02-16T14:11:59.506Z,98976.90
2023-02-16T14:15:09.712Z,98978.59
2023-02-16T14:17:37.019Z,98977.58
2023-02-16T14:20:13.596Z,98971.81
2023-02-16T14:23:20.915Z,98972.11
2023-02-16T14:26:04.751Z,98973.67
2023-02-16T14:28:37.012Z,98971.34
2023-02-16T14:32:03.259Z,98975.73
2023-02-16T14:34:56.293Z,98974.67
2023-02-16T14:37:38.878Z,98970.55
2023-02-16T14:40:24.079Z,98969.95
2023-02-16T14:43:43.956Z,98969.17
2023-02-16T14:47:33.035Z,98969.27
2023-02-16T14:50:36.615Z,98970.60
2023-02-16T14:53:57.965Z,98971.31
2023-02-16T14:57:24.846Z,98968.54
2023-02-16T15:00:19.890Z,98966.41
2023-02-16T15:03:08.164Z,98963.70
2023-02-16T15:07:00.262Z,98964.44
2023-02-16T15:09:59.558Z,98966.52
2023-02-16T15:13:11.348Z,98962.77
2023-02-16T15:16:14.010Z,98962.30
2023-02-16T15:19:07.852Z,98962.94
2023-02-16T15:22:39.989Z,98959.72
2023-02-16T15:25:42.275Z,98964.04
2023-02-16T15:28:42.897Z,98962.36
2023-02-16T15:32:16.707Z,98957.94
2023-02-16T15:35:38.867Z,98955.08
2023-02-16T15:38:43.383Z,98957.93
2023-02-16T15:41:34.594Z,98963.58
2023-02-16T15:45:08.842Z,98968.21
2023-02-16T15:48:56.697Z,98971.88
2023-02-16T15:51:38.899Z,98972.98
2023-02-16T15:54:46.838Z,98972.95
2023-02-16T15:57:37.481Z,98977.56
2023-02-16T16:00:54.709Z,98971.65
2023-02-16T16:03:34.886Z,98973.53
2023-02-16T16:06:17.692Z,98975.45
2023-02-16T16:09:08.493Z,98973.88
2023-02-16T16:12:33.188Z,98973.26
2023-02-16T16:15:33.367Z,98974.55
2023-02-16T16:18:53.429Z,98974.09
2023-02-16T16:22:11.787Z,98972.19
2023-02-16T16:25:07.884Z,98979.68
2023-02-16T16:28:30.814Z,98973.64
2023-02-16T16:31:40.625Z,98974.36
2023-02-16T16:34:38.732Z,98972.36
2023-02-16T16:37:35.734Z,98972.20
2023-02-16T16:40:26.452Z,98970.30
2023-02-16T16:43:36.636Z,98972.77
2023-02-16T16:46:54.206Z,98975.27
2023-02-16T16:49:21.473Z,98974.71
2023-02-16T16:52:11.077Z,98976.86
2023-02-16T16:55:34.894Z,98980.70
2023-02-16T16:58:05.405Z,98984.05
2023-02-16T17:00:58.953Z,98979.89
2023-02-16T17:03:31.616Z,98978.37
2023-02-16T17:06:22.073Z,98980.69
2023-02-16T17:08:49.627Z,98985.89
2023-02-16T17:12:25.158Z,98990.52
2023-02-16T17:15:32.691Z,98993.96
2023-02-16T17:18:37.789Z,98990.14
2023-02-16T17:21:13.916Z,98990.95
2023-02-16T17:24:51.752Z,98989.45
2023-02-16T17:27:19.923Z,98988.27
2023-02-16T17:30:00.906Z,98990.48
2023-02-16T17:32:31.208Z,98986.10
2023-02-16T17:35:24.350Z,98986.14
2023-02-16T17:37:55.317Z,98979.73
2023-02-16T17:40:33.919Z,98979.10
2023-02-16T17:43:01.313Z,98975.70
2023-02-16T17:45:34.969Z,98973.48
2023-02-16T17:48:30.442Z,98978.57
2023-02-16T17:51:36.499Z,98981.92
2023-02-16T17:54:06.567Z,98980.34
2023-02-16T17:56:47.053Z,98976.45
2023-02-16T17:59:26.108Z,98977.95
2023-02-16T18:01:56.044Z,98976.33
2023-02-16T18:04:32.927Z,98977.45
2023-02-16T18:07:16.823Z,98974.45
2023-02-16T18:09:46.102Z,98975.20
2023-02-16T18:12:33.826Z,98972.09
2023-02-16T18:15:12.992Z,98976.11
2023-02-16T18:18:23.418Z,98976.38
2023-02-16T18:21:16.618Z,98973.14
2023-02-16T18:23:46.764Z,98973.53
2023-02-16T18:26:17.040Z,98973.48
2023-02-16T18:28:47.029Z,98977.78
2023-02-16T18:31:49.106Z,98976.64
2023-02-16T18:34:37.650Z,98975.21
2023-02-16T18:37:15.097Z,98974.44
2023-02-16T18:40:46.364Z,98972.33
2023-02-16T18:43:37.271Z,98973.05
2023-02-16T18:47:03.070Z,98973.98
2023-02-16T18:50:06.781Z,98971.16
2023-02-16T18:52:34.461Z,98970.95
2023-02-16T18:55:36.094Z,98974.23
2023-02-16T18:58:26.572Z,98972.09
2023-02-16T19:01:01.217Z,98971.84
2023-02-16T19:03:30.192Z,98970.20
2023-02-16T19:06:00.623Z,98967.48
2023-02-16T19:08:31.447Z,98965.86
2023-02-16T19:11:01.908Z,98963.33
2023-02-16T19:14:23.103Z,98965.17
2023-02-16T19:17:16.944Z,98963.79
2023-02-16T19:19:57.584Z,98963.73
2023-02-16T19:22:48.890Z,98964.05
2023-02-16T19:25:19.310Z,98962.45
2023-02-16T19:27:47.268Z,98963.35
2023-02-16T19:30:41.252Z,98960.02
2023-02-16T19:33:15.596Z,98959.44
2023-02-16T19:36:24.139Z,98956.66
2023-02-16T19:38:54.560Z,98954.56
2023-02-16T19:41:50.717Z,98949.34
2023-02-16T19:44:37.984Z,98947.17
2023-02-16T19:47:44.802Z,98954.30
2023-02-16T19:50:55.524Z,98955.54
2023-02-16T19:53:28.420Z,98959.46
2023-02-16T19:56:45.512Z,98953.46
2023-02-16T19:59:55.987Z,98949.67
2023-02-16T20:03:15.138Z,98948.41
2023-02-16T20:06:11.092Z,98948.04
2023-02-16T20:09:12.632Z,98947.70
2023-02-16T20:12:09.203Z,98946.97
2023-02-16T20:15:07.891Z,98943.70
2023-02-16T20:18:06.202Z,98940.06
2023-02-16T20:21:36.144Z,98944.80
2023-02-16T20:25:06.268Z,98949.58
2023-02-16T20:27:49.493Z,98946.83
2023-02-16T20:30:20.834Z,98948.77
2023-02-16T20:33:19.042Z,98950.80
2023-02-16T20:35:50.006Z,98944.64
2023-02-16T20:38:49.396Z,98944.66
2023-02-16T20:42:39.685Z,98948.55
2023-02-16T20:45:42.526Z,98950.03
2023-02-16T20:48:41.785Z,98950.73
2023-02-16T20:51:51.793Z,98952.98
2023-02-16T20:54:28.250Z,98952.23
2023-02-16T20:57:39.944Z,98951.23
2023-02-16T21:01:20.569Z,98956.70
2023-02-16T21:04:35.552Z,98959.70
2023-02-16T21:07:55.476Z,98960.74
2023-02-16T21:11:19.160Z,98958.64
2023-02-16T21:13:48.863Z,98954.88
2023-02-16T21:16:59.084Z,98950.55
2023-02-16T21:19:49.279Z,98949.09
2023-02-16T21:23:05.461Z,98954.11
2023-02-16T21:26:46.056Z,98952.38
2023-02-16T21:29:48.149Z,98950.80
2023-02-16T21:33:56.286Z,98948.67
2023-02-16T21:37:11.908Z,98952.27
2023-02-16T21:40:42.306Z,98950.09
2023-02-16T21:44:39.805Z,98949.02
2023-02-16T21:48:44.427Z,98946.94
2023-02-16T21:52:28.783Z,98944.42
2023-02-16T21:55:35.413Z,98944.42
2023-02-16T21:59:43.541Z,98941.00
2023-02-16T22:03:53.386Z,98940.04
2023-02-16T22:07:48.393Z,98939.68
2023-02-16T22:11:46.481Z,98937.77
2023-02-16T22:15:17.473Z,98934.87
2023-02-16T22:19:25.644Z,98938.59
2023-02-16T22:22:56.351Z,98937.46
2023-02-16T22:26:45.954Z,98933.80
2023-02-16T22:30:01.129Z,98933.10
2023-02-16T22:33:41.937Z,98928.17
2023-02-16T22:37:09.779Z,98927.14
2023-02-16T22:40:42.887Z,98930.24
2023-02-16T22:43:59.743Z,98930.48
2023-02-16T22:47:50.501Z,98933.15
2023-02-16T22:51:47.498Z,98929.84
2023-02-16T22:55:55.714Z,98930.27
2023-02-16T22:59:43.680Z,98928.14
2023-02-16T23:03:51.651Z,98927.61
2023-02-16T23:07:55.900Z,98926.41
2023-02-16T23:11:43.449Z,98926.25
2023-02-16T23:15:36.519Z,98921.12
2023-02-16T23:19:17.875Z,98923.94
2023-02-16T23:23:18.861Z,98922.31
2023-02-16T23:27:18.355Z,98918.59
2023-02-16T23:31:26.566Z,98919.02
2023-02-16T23:35:28.114Z,98918.43
2023-02-16T23:39:36.222Z,98918.61
2023-02-16T23:43:45.455Z,98919.20
2023-02-16T23:47:54.477Z,98920.73
2023-02-16T23:52:03.543Z,98917.73
2023-02-16T23:56:11.818Z,98913.90
